sensor_id;sensor_type;location;lat;lon;timestamp;P1;durP1;ratioP1;P2;durP2;ratioP2
28934;SDS011;16044;52.726;-2.108;2024-02-21T00:01:14;14.07;;;4.80;;
28934;SDS011;16044;52.726;-2.108;2024-02-21T00:03:47;14.15;;;5.00;;
28934;SDS011;16044;52.726;-2.108;2024-02-21T00:06:17;8.45;;;4.03;;
28934;SDS011;16044;52.726;-2.108;2024-02-21T00:08:47;12.45;;;3.90;;
28934;SDS011;16044;52.726;-2.108;2024-02-21T00:11:20;13.27;;;4.07;;
28934;SDS011;16044;52.726;-2.108;2024-02-21T00:13:51;16.92;;;3.75;;
28934;SDS011;16044;52.726;-2.108;2024-02-21T00:16:21;15.60;;;3.85;;
28934;SDS011;16044;52.726;-2.108;2024-02-21T00:18:52;12.13;;;3.42;;
28934;SDS011;16044;52.726;-2.108;2024-02-21T00:21:22;11.38;;;3.38;;
28934;SDS011;16044;52.726;-2.108;2024-02-21T00:23:52;14.45;;;3.40;;
28934;SDS011;16044;52.726;-2.108;2024-02-21T00:26:25;11.50;;;3.33;;
28934;SDS011;16044;52.726;-2.108;2024-02-21T00:28:56;13.90;;;3.92;;
28934;SDS011;16044;52.726;-2.108;2024-02-21T00:31:26;10.25;;;2.88;;
28934;SDS011;16044;52.726;-2.108;2024-02-21T00:33:56;12.57;;;3.30;;
28934;SDS011;16044;52.726;-2.108;2024-02-21T00:36:27;10.52;;;2.80;;
28934;SDS011;16044;52.726;-2.108;2024-02-21T00:38:57;13.20;;;2.90;;
28934;SDS011;16044;52.726;-2.108;2024-02-21T00:41:30;10.68;;;3.38;;
28934;SDS011;16044;52.726;-2.108;2024-02-21T00:44:01;11.85;;;3.13;;
28934;SDS011;16044;52.726;-2.108;2024-02-21T00:46:32;14.57;;;3.33;;
28934;SDS011;16044;52.726;-2.108;2024-02-21T00:49:05;14.25;;;3.25;;
28934;SDS011;16044;52.726;-2.108;2024-02-21T00:51:36;10.57;;;3.38;;
28934;SDS011;16044;52.726;-2.108;2024-02-21T00:54:06;12.65;;;3.25;;
28934;SDS011;16044;52.726;-2.108;2024-02-21T00:56:39;11.13;;;2.80;;
28934;SDS011;16044;52.726;-2.108;2024-02-21T00:59:10;11.32;;;3.05;;
28934;SDS011;16044;52.726;-2.108;2024-02-21T01:01:40;10.25;;;3.28;;
28934;SDS011;16044;52.726;-2.108;2024-02-21T01:04:11;10.38;;;3.28;;
28934;SDS011;16044;52.726;-2.108;2024-02-21T01:06:41;11.13;;;3.35;;
28934;SDS011;16044;52.726;-2.108;2024-02-21T01:09:12;13.38;;;2.88;;
28934;SDS011;16044;52.726;-2.108;2024-02-21T01:11:45;12.88;;;3.10;;
28934;SDS011;16044;52.726;-2.108;2024-02-21T01:14:15;16.30;;;3.65;;
28934;SDS011;16044;52.726;-2.108;2024-02-21T01:16:45;17.42;;;3.58;;
28934;SDS011;16044;52.726;-2.108;2024-02-21T01:19:16;15.02;;;4.00;;
28934;SDS011;16044;52.726;-2.108;2024-02-21T01:21:46;14.95;;;4.35;;
28934;SDS011;16044;52.726;-2.108;2024-02-21T01:24:17;15.55;;;3.83;;
28934;SDS011;16044;52.726;-2.108;2024-02-21T01:26:50;15.00;;;3.63;;
28934;SDS011;16044;52.726;-2.108;2024-02-21T01:29:20;12.95;;;3.22;;
28934;SDS011;16044;52.726;-2.108;2024-02-21T01:31:50;17.90;;;3.72;;
28934;SDS011;16044;52.726;-2.108;2024-02-21T01:34:21;14.52;;;3.72;;
28934;SDS011;16044;52.726;-2.108;2024-02-21T01:36:54;13.38;;;3.50;;
28934;SDS011;16044;52.726;-2.108;2024-02-21T01:39:25;15.02;;;3.50;;
28934;SDS011;16044;52.726;-2.108;2024-02-21T01:41:58;12.13;;;3.35;;
28934;SDS011;16044;52.726;-2.108;2024-02-21T01:44:29;15.75;;;3.30;;
28934;SDS011;16044;52.726;-2.108;2024-02-21T01:47:00;12.60;;;3.47;;
28934;SDS011;16044;52.726;-2.108;2024-02-21T01:49:30;17.83;;;4.20;;
28934;SDS011;16044;52.726;-2.108;2024-02-21T01:52:01;13.35;;;3.80;;
28934;SDS011;16044;52.726;-2.108;2024-02-21T01:54:33;14.82;;;3.60;;
28934;SDS011;16044;52.726;-2.108;2024-02-21T01:57:06;16.08;;;3.65;;
28934;SDS011;16044;52.726;-2.108;2024-02-21T01:59:37;17.15;;;3.70;;
28934;SDS011;16044;52.726;-2.108;2024-02-21T02:02:08;19.63;;;4.53;;
28934;SDS011;16044;52.726;-2.108;2024-02-21T02:04:38;18.40;;;4.25;;
28934;SDS011;16044;52.726;-2.108;2024-02-21T02:07:09;20.08;;;5.28;;
28934;SDS011;16044;52.726;-2.108;2024-02-21T02:09:40;17.20;;;5.25;;
28934;SDS011;16044;52.726;-2.108;2024-02-21T02:12:13;16.27;;;4.45;;
28934;SDS011;16044;52.726;-2.108;2024-02-21T02:14:44;20.23;;;4.78;;
28934;SDS011;16044;52.726;-2.108;2024-02-21T02:17:14;18.25;;;4.63;;
28934;SDS011;16044;52.726;-2.108;2024-02-21T02:19:44;23.77;;;5.18;;
28934;SDS011;16044;52.726;-2.108;2024-02-21T02:22:15;21.85;;;5.15;;
28934;SDS011;16044;52.726;-2.108;2024-02-21T02:24:54;22.58;;;5.60;;
28934;SDS011;16044;52.726;-2.108;2024-02-21T02:27:25;28.33;;;6.10;;
28934;SDS011;16044;52.726;-2.108;2024-02-21T02:29:55;20.30;;;5.80;;
28934;SDS011;16044;52.726;-2.108;2024-02-21T02:32:26;22.52;;;5.50;;
28934;SDS011;16044;52.726;-2.108;2024-02-21T02:34:56;22.52;;;5.82;;
28934;SDS011;16044;52.726;-2.108;2024-02-21T02:37:27;18.55;;;6.10;;
28934;SDS011;16044;52.726;-2.108;2024-02-21T02:40:00;18.35;;;6.18;;
28934;SDS011;16044;52.726;-2.108;2024-02-21T02:42:30;20.13;;;5.88;;
28934;SDS011;16044;52.726;-2.108;2024-02-21T02:45:01;21.38;;;6.22;;
28934;SDS011;16044;52.726;-2.108;2024-02-21T02:47:31;23.08;;;6.63;;
28934;SDS011;16044;52.726;-2.108;2024-02-21T02:50:02;21.77;;;6.30;;
28934;SDS011;16044;52.726;-2.108;2024-02-21T02:52:34;20.83;;;6.47;;
28934;SDS011;16044;52.726;-2.108;2024-02-21T02:55:08;17.75;;;5.45;;
28934;SDS011;16044;52.726;-2.108;2024-02-21T02:57:38;18.60;;;5.93;;
28934;SDS011;16044;52.726;-2.108;2024-02-21T03:00:09;15.77;;;5.00;;
28934;SDS011;16044;52.726;-2.108;2024-02-21T03:02:42;16.98;;;5.40;;
28934;SDS011;16044;52.726;-2.108;2024-02-21T03:05:15;13.52;;;5.00;;
28934;SDS011;16044;52.726;-2.108;2024-02-21T03:07:48;11.90;;;4.25;;
28934;SDS011;16044;52.726;-2.108;2024-02-21T03:10:21;10.85;;;3.80;;
28934;SDS011;16044;52.726;-2.108;2024-02-21T03:12:51;10.15;;;3.63;;
28934;SDS011;16044;52.726;-2.108;2024-02-21T03:15:22;9.55;;;3.38;;
28934;SDS011;16044;52.726;-2.108;2024-02-21T03:17:53;10.00;;;3.00;;
28934;SDS011;16044;52.726;-2.108;2024-02-21T03:20:23;7.25;;;2.60;;
28934;SDS011;16044;52.726;-2.108;2024-02-21T03:22:53;8.25;;;2.67;;
28934;SDS011;16044;52.726;-2.108;2024-02-21T03:25:26;9.32;;;2.97;;
28934;SDS011;16044;52.726;-2.108;2024-02-21T03:27:57;6.03;;;2.30;;
28934;SDS011;16044;52.726;-2.108;2024-02-21T03:30:28;12.15;;;2.40;;
28934;SDS011;16044;52.726;-2.108;2024-02-21T03:33:00;6.05;;;2.20;;
28934;SDS011;16044;52.726;-2.108;2024-02-21T03:35:30;6.95;;;2.45;;
28934;SDS011;16044;52.726;-2.108;2024-02-21T03:38:01;6.20;;;2.25;;
28934;SDS011;16044;52.726;-2.108;2024-02-21T03:40:34;9.40;;;2.35;;
28934;SDS011;16044;52.726;-2.108;2024-02-21T03:43:05;8.35;;;2.50;;
28934;SDS011;16044;52.726;-2.108;2024-02-21T03:45:35;8.27;;;2.28;;
28934;SDS011;16044;52.726;-2.108;2024-02-21T03:48:06;5.22;;;1.80;;
28934;SDS011;16044;52.726;-2.108;2024-02-21T03:50:37;6.35;;;1.98;;
28934;SDS011;16044;52.726;-2.108;2024-02-21T03:53:07;6.68;;;2.22;;
28934;SDS011;16044;52.726;-2.108;2024-02-21T03:55:41;7.47;;;2.08;;
28934;SDS011;16044;52.726;-2.108;2024-02-21T03:58:12;5.40;;;1.73;;
28934;SDS011;16044;52.726;-2.108;2024-02-21T04:00:42;5.38;;;1.83;;
28934;SDS011;16044;52.726;-2.108;2024-02-21T04:03:13;4.95;;;1.77;;
28934;SDS011;16044;52.726;-2.108;2024-02-21T04:05:43;7.50;;;2.15;;
28934;SDS011;16044;52.726;-2.108;2024-02-21T04:08:13;4.72;;;1.73;;
28934;SDS011;16044;52.726;-2.108;2024-02-21T04:10:46;3.83;;;1.27;;
28934;SDS011;16044;52.726;-2.108;2024-02-21T04:13:17;3.33;;;1.35;;
28934;SDS011;16044;52.726;-2.108;2024-02-21T04:15:49;4.85;;;1.33;;
28934;SDS011;16044;52.726;-2.108;2024-02-21T04:18:20;3.53;;;1.20;;
28934;SDS011;16044;52.726;-2.108;2024-02-21T04:20:51;4.13;;;1.30;;
28934;SDS011;16044;52.726;-2.108;2024-02-21T04:23:22;4.82;;;1.35;;
28934;SDS011;16044;52.726;-2.108;2024-02-21T04:25:54;3.95;;;1.48;;
28934;SDS011;16044;52.726;-2.108;2024-02-21T04:28:25;4.78;;;1.52;;
28934;SDS011;16044;52.726;-2.108;2024-02-21T04:30:55;4.75;;;1.55;;
28934;SDS011;16044;52.726;-2.108;2024-02-21T04:33:26;4.63;;;1.35;;
28934;SDS011;16044;52.726;-2.108;2024-02-21T04:35:56;4.75;;;1.50;;
28934;SDS011;16044;52.726;-2.108;2024-02-21T04:38:27;6.95;;;1.55;;
28934;SDS011;16044;52.726;-2.108;2024-02-21T04:41:00;5.22;;;1.02;;
28934;SDS011;16044;52.726;-2.108;2024-02-21T04:43:31;5.60;;;1.10;;
28934;SDS011;16044;52.726;-2.108;2024-02-21T04:46:01;10.18;;;1.67;;
28934;SDS011;16044;52.726;-2.108;2024-02-21T04:48:32;6.85;;;1.55;;
28934;SDS011;16044;52.726;-2.108;2024-02-21T04:51:02;6.15;;;2.05;;
28934;SDS011;16044;52.726;-2.108;2024-02-21T04:53:33;8.38;;;1.73;;
28934;SDS011;16044;52.726;-2.108;2024-02-21T04:56:06;7.53;;;1.55;;
28934;SDS011;16044;52.726;-2.108;2024-02-21T04:58:37;6.38;;;1.83;;
28934;SDS011;16044;52.726;-2.108;2024-02-21T05:01:08;7.63;;;1.60;;
28934;SDS011;16044;52.726;-2.108;2024-02-21T05:03:39;4.32;;;1.45;;
28934;SDS011;16044;52.726;-2.108;2024-02-21T05:06:09;7.43;;;1.90;;
28934;SDS011;16044;52.726;-2.108;2024-02-21T05:08:39;11.00;;;2.20;;
28934;SDS011;16044;52.726;-2.108;2024-02-21T05:11:13;9.93;;;2.38;;
28934;SDS011;16044;52.726;-2.108;2024-02-21T05:13:43;10.75;;;2.92;;
28934;SDS011;16044;52.726;-2.108;2024-02-21T05:16:14;8.90;;;2.70;;
28934;SDS011;16044;52.726;-2.108;2024-02-21T05:18:46;9.00;;;2.90;;
28934;SDS011;16044;52.726;-2.108;2024-02-21T05:21:16;10.10;;;2.95;;
28934;SDS011;16044;52.726;-2.108;2024-02-21T05:23:47;12.32;;;3.10;;
28934;SDS011;16044;52.726;-2.108;2024-02-21T05:26:22;7.63;;;2.30;;
28934;SDS011;16044;52.726;-2.108;2024-02-21T05:28:53;9.50;;;2.60;;
28934;SDS011;16044;52.726;-2.108;2024-02-21T05:31:24;11.75;;;3.28;;
28934;SDS011;16044;52.726;-2.108;2024-02-21T05:33:55;8.57;;;2.88;;
28934;SDS011;16044;52.726;-2.108;2024-02-21T05:36:28;8.23;;;2.83;;
28934;SDS011;16044;52.726;-2.108;2024-02-21T05:38:59;7.10;;;2.50;;
28934;SDS011;16044;52.726;-2.108;2024-02-21T05:41:32;12.63;;;2.67;;
28934;SDS011;16044;52.726;-2.108;2024-02-21T05:44:02;8.32;;;2.85;;
28934;SDS011;16044;52.726;-2.108;2024-02-21T05:46:33;12.60;;;2.60;;
28934;SDS011;16044;52.726;-2.108;2024-02-21T05:49:04;13.93;;;2.78;;
28934;SDS011;16044;52.726;-2.108;2024-02-21T05:51:34;10.18;;;2.88;;
28934;SDS011;16044;52.726;-2.108;2024-02-21T05:54:05;10.32;;;2.65;;
28934;SDS011;16044;52.726;-2.108;2024-02-21T05:56:38;12.25;;;3.03;;
28934;SDS011;16044;52.726;-2.108;2024-02-21T05:59:09;16.00;;;4.10;;
28934;SDS011;16044;52.726;-2.108;2024-02-21T06:01:39;12.15;;;3.20;;
28934;SDS011;16044;52.726;-2.108;2024-02-21T06:04:09;12.75;;;3.90;;
28934;SDS011;16044;52.726;-2.108;2024-02-21T06:06:40;11.93;;;3.20;;
28934;SDS011;16044;52.726;-2.108;2024-02-21T06:09:11;12.27;;;3.35;;
28934;SDS011;16044;52.726;-2.108;2024-02-21T06:11:44;11.32;;;3.55;;
28934;SDS011;16044;52.726;-2.108;2024-02-21T06:14:15;13.15;;;3.90;;
28934;SDS011;16044;52.726;-2.108;2024-02-21T06:16:46;15.85;;;4.38;;
28934;SDS011;16044;52.726;-2.108;2024-02-21T06:19:16;13.55;;;3.20;;
28934;SDS011;16044;52.726;-2.108;2024-02-21T06:21:47;12.98;;;3.55;;
28934;SDS011;16044;52.726;-2.108;2024-02-21T06:24:17;15.68;;;3.63;;
28934;SDS011;16044;52.726;-2.108;2024-02-21T06:26:51;12.93;;;3.40;;
28934;SDS011;16044;52.726;-2.108;2024-02-21T06:29:21;10.18;;;3.22;;
28934;SDS011;16044;52.726;-2.108;2024-02-21T06:31:51;10.02;;;3.17;;
28934;SDS011;16044;52.726;-2.108;2024-02-21T06:34:22;16.30;;;3.78;;
28934;SDS011;16044;52.726;-2.108;2024-02-21T06:36:55;8.85;;;3.10;;
28934;SDS011;16044;52.726;-2.108;2024-02-21T06:39:25;12.45;;;3.88;;
28934;SDS011;16044;52.726;-2.108;2024-02-21T06:41:58;15.48;;;3.88;;
28934;SDS011;16044;52.726;-2.108;2024-02-21T06:44:29;11.13;;;3.33;;
28934;SDS011;16044;52.726;-2.108;2024-02-21T06:47:03;10.10;;;3.35;;
28934;SDS011;16044;52.726;-2.108;2024-02-21T06:49:34;11.43;;;3.20;;
28934;SDS011;16044;52.726;-2.108;2024-02-21T06:52:05;9.93;;;3.03;;
28934;SDS011;16044;52.726;-2.108;2024-02-21T06:54:35;11.50;;;2.97;;
28934;SDS011;16044;52.726;-2.108;2024-02-21T06:57:09;10.10;;;2.90;;
28934;SDS011;16044;52.726;-2.108;2024-02-21T06:59:39;10.68;;;3.75;;
28934;SDS011;16044;52.726;-2.108;2024-02-21T07:02:10;14.35;;;3.65;;
28934;SDS011;16044;52.726;-2.108;2024-02-21T07:04:40;11.32;;;3.72;;
28934;SDS011;16044;52.726;-2.108;2024-02-21T07:07:11;11.55;;;2.78;;
28934;SDS011;16044;52.726;-2.108;2024-02-21T07:09:41;9.43;;;2.58;;
28934;SDS011;16044;52.726;-2.108;2024-02-21T07:12:17;7.97;;;2.30;;
28934;SDS011;16044;52.726;-2.108;2024-02-21T07:14:48;10.13;;;2.88;;
28934;SDS011;16044;52.726;-2.108;2024-02-21T07:17:18;11.27;;;2.25;;
28934;SDS011;16044;52.726;-2.108;2024-02-21T07:19:49;8.20;;;2.65;;
28934;SDS011;16044;52.726;-2.108;2024-02-21T07:22:19;7.72;;;2.85;;
28934;SDS011;16044;52.726;-2.108;2024-02-21T07:24:49;8.65;;;2.50;;
28934;SDS011;16044;52.726;-2.108;2024-02-21T07:27:22;11.02;;;2.63;;
28934;SDS011;16044;52.726;-2.108;2024-02-21T07:29:54;9.93;;;2.88;;
28934;SDS011;16044;52.726;-2.108;2024-02-21T07:32:25;7.57;;;2.00;;
28934;SDS011;16044;52.726;-2.108;2024-02-21T07:34:55;11.32;;;2.45;;
28934;SDS011;16044;52.726;-2.108;2024-02-21T07:37:26;7.85;;;2.55;;
28934;SDS011;16044;52.726;-2.108;2024-02-21T07:39:59;10.65;;;2.40;;
28934;SDS011;16044;52.726;-2.108;2024-02-21T07:42:32;7.63;;;1.90;;
28934;SDS011;16044;52.726;-2.108;2024-02-21T07:45:03;6.65;;;2.13;;
28934;SDS011;16044;52.726;-2.108;2024-02-21T07:47:34;8.40;;;2.50;;
28934;SDS011;16044;52.726;-2.108;2024-02-21T07:50:05;8.70;;;2.60;;
28934;SDS011;16044;52.726;-2.108;2024-02-21T07:52:37;11.27;;;2.80;;
28934;SDS011;16044;52.726;-2.108;2024-02-21T07:55:08;9.50;;;2.80;;
28934;SDS011;16044;52.726;-2.108;2024-02-21T07:57:42;10.52;;;3.10;;
28934;SDS011;16044;52.726;-2.108;2024-02-21T08:00:12;8.18;;;2.97;;
28934;SDS011;16044;52.726;-2.108;2024-02-21T08:02:47;11.15;;;3.55;;
28934;SDS011;16044;52.726;-2.108;2024-02-21T08:05:18;8.70;;;3.20;;
28934;SDS011;16044;52.726;-2.108;2024-02-21T08:07:49;6.63;;;2.88;;
28934;SDS011;16044;52.726;-2.108;2024-02-21T08:10:23;11.48;;;3.20;;
28934;SDS011;16044;52.726;-2.108;2024-02-21T08:12:57;10.27;;;2.50;;
28934;SDS011;16044;52.726;-2.108;2024-02-21T08:15:27;9.27;;;2.70;;
28934;SDS011;16044;52.726;-2.108;2024-02-21T08:17:57;6.75;;;2.17;;
28934;SDS011;16044;52.726;-2.108;2024-02-21T08:20:30;6.30;;;2.30;;
28934;SDS011;16044;52.726;-2.108;2024-02-21T08:23:01;8.27;;;2.70;;
28934;SDS011;16044;52.726;-2.108;2024-02-21T08:25:31;9.32;;;2.65;;
28934;SDS011;16044;52.726;-2.108;2024-02-21T08:28:05;9.10;;;2.72;;
28934;SDS011;16044;52.726;-2.108;2024-02-21T08:30:35;7.38;;;2.50;;
28934;SDS011;16044;52.726;-2.108;2024-02-21T08:33:06;8.70;;;2.50;;
28934;SDS011;16044;52.726;-2.108;2024-02-21T08:35:36;9.85;;;2.38;;
28934;SDS011;16044;52.726;-2.108;2024-02-21T08:38:06;7.63;;;1.98;;
28934;SDS011;16044;52.726;-2.108;2024-02-21T08:40:37;5.90;;;1.80;;
28934;SDS011;16044;52.726;-2.108;2024-02-21T08:43:10;5.75;;;1.73;;
28934;SDS011;16044;52.726;-2.108;2024-02-21T08:45:40;7.53;;;2.40;;
28934;SDS011;16044;52.726;-2.108;2024-02-21T08:48:11;8.07;;;2.30;;
28934;SDS011;16044;52.726;-2.108;2024-02-21T08:50:41;6.05;;;1.80;;
28934;SDS011;16044;52.726;-2.108;2024-02-21T08:53:11;7.05;;;2.47;;
28934;SDS011;16044;52.726;-2.108;2024-02-21T08:55:42;6.97;;;2.20;;
28934;SDS011;16044;52.726;-2.108;2024-02-21T08:58:16;7.25;;;2.13;;
28934;SDS011;16044;52.726;-2.108;2024-02-21T09:00:48;5.07;;;1.75;;
28934;SDS011;16044;52.726;-2.108;2024-02-21T09:03:18;7.18;;;2.05;;
28934;SDS011;16044;52.726;-2.108;2024-02-21T09:05:49;4.45;;;1.83;;
28934;SDS011;16044;52.726;-2.108;2024-02-21T09:08:20;5.57;;;1.63;;
28934;SDS011;16044;52.726;-2.108;2024-02-21T09:10:51;7.00;;;1.60;;
28934;SDS011;16044;52.726;-2.108;2024-02-21T09:13:24;7.05;;;2.05;;
28934;SDS011;16044;52.726;-2.108;2024-02-21T09:15:54;7.47;;;1.73;;
28934;SDS011;16044;52.726;-2.108;2024-02-21T09:18:25;8.23;;;2.38;;
28934;SDS011;16044;52.726;-2.108;2024-02-21T09:20:56;5.95;;;2.03;;
28934;SDS011;16044;52.726;-2.108;2024-02-21T09:23:26;6.05;;;1.95;;
28934;SDS011;16044;52.726;-2.108;2024-02-21T09:25:58;4.82;;;1.60;;
28934;SDS011;16044;52.726;-2.108;2024-02-21T09:28:33;5.28;;;1.67;;
28934;SDS011;16044;52.726;-2.108;2024-02-21T09:31:04;7.03;;;1.90;;
28934;SDS011;16044;52.726;-2.108;2024-02-21T09:33:34;6.15;;;1.98;;
28934;SDS011;16044;52.726;-2.108;2024-02-21T09:36:05;6.32;;;1.73;;
28934;SDS011;16044;52.726;-2.108;2024-02-21T09:38:36;5.13;;;1.55;;
28934;SDS011;16044;52.726;-2.108;2024-02-21T09:41:12;4.28;;;1.63;;
28934;SDS011;16044;52.726;-2.108;2024-02-21T09:43:54;6.85;;;1.90;;
28934;SDS011;16044;52.726;-2.108;2024-02-21T09:46:27;7.43;;;1.65;;
28934;SDS011;16044;52.726;-2.108;2024-02-21T09:49:10;3.58;;;1.33;;
28934;SDS011;16044;52.726;-2.108;2024-02-21T09:51:53;8.88;;;1.63;;
28934;SDS011;16044;52.726;-2.108;2024-02-21T09:54:25;5.95;;;1.80;;
28934;SDS011;16044;52.726;-2.108;2024-02-21T09:56:57;7.43;;;1.80;;
28934;SDS011;16044;52.726;-2.108;2024-02-21T09:59:32;4.70;;;1.60;;
28934;SDS011;16044;52.726;-2.108;2024-02-21T10:02:03;7.18;;;1.73;;
28934;SDS011;16044;52.726;-2.108;2024-02-21T10:04:34;5.07;;;1.70;;
28934;SDS011;16044;52.726;-2.108;2024-02-21T10:07:05;5.68;;;1.73;;
28934;SDS011;16044;52.726;-2.108;2024-02-21T10:09:35;6.18;;;1.73;;
28934;SDS011;16044;52.726;-2.108;2024-02-21T10:12:07;6.80;;;1.90;;
28934;SDS011;16044;52.726;-2.108;2024-02-21T10:14:42;4.60;;;1.55;;
28934;SDS011;16044;52.726;-2.108;2024-02-21T10:17:15;5.60;;;1.70;;
28934;SDS011;16044;52.726;-2.108;2024-02-21T10:19:47;7.70;;;1.90;;
28934;SDS011;16044;52.726;-2.108;2024-02-21T10:22:19;5.47;;;1.80;;
28934;SDS011;16044;52.726;-2.108;2024-02-21T10:24:52;5.40;;;1.80;;
28934;SDS011;16044;52.726;-2.108;2024-02-21T10:27:23;3.95;;;1.15;;
28934;SDS011;16044;52.726;-2.108;2024-02-21T10:29:56;6.57;;;1.48;;
28934;SDS011;16044;52.726;-2.108;2024-02-21T10:32:26;4.93;;;1.30;;
28934;SDS011;16044;52.726;-2.108;2024-02-21T10:35:00;4.60;;;1.05;;
28934;SDS011;16044;52.726;-2.108;2024-02-21T10:37:32;2.85;;;0.90;;
28934;SDS011;16044;52.726;-2.108;2024-02-21T10:40:03;3.72;;;1.00;;
28934;SDS011;16044;52.726;-2.108;2024-02-21T10:42:35;2.05;;;0.65;;
28934;SDS011;16044;52.726;-2.108;2024-02-21T10:45:11;3.30;;;1.00;;
28934;SDS011;16044;52.726;-2.108;2024-02-21T10:47:43;3.03;;;0.90;;
28934;SDS011;16044;52.726;-2.108;2024-02-21T10:50:17;3.10;;;1.05;;
28934;SDS011;16044;52.726;-2.108;2024-02-21T10:52:51;3.35;;;1.38;;
28934;SDS011;16044;52.726;-2.108;2024-02-21T10:55:40;2.15;;;0.80;;
28934;SDS011;16044;52.726;-2.108;2024-02-21T10:58:20;3.95;;;1.20;;
28934;SDS011;16044;52.726;-2.108;2024-02-21T11:00:55;3.50;;;0.90;;
28934;SDS011;16044;52.726;-2.108;2024-02-21T11:03:25;4.63;;;1.13;;
28934;SDS011;16044;52.726;-2.108;2024-02-21T11:05:56;3.15;;;1.08;;
28934;SDS011;16044;52.726;-2.108;2024-02-21T11:08:27;3.60;;;1.00;;
28934;SDS011;16044;52.726;-2.108;2024-02-21T11:10:58;3.47;;;1.13;;
28934;SDS011;16044;52.726;-2.108;2024-02-21T11:13:30;2.42;;;0.63;;
28934;SDS011;16044;52.726;-2.108;2024-02-21T11:16:11;3.80;;;0.60;;
28934;SDS011;16044;52.726;-2.108;2024-02-21T11:18:51;5.03;;;0.70;;
28934;SDS011;16044;52.726;-2.108;2024-02-21T11:21:22;3.75;;;0.80;;
28934;SDS011;16044;52.726;-2.108;2024-02-21T11:24:04;3.78;;;0.82;;
28934;SDS011;16044;52.726;-2.108;2024-02-21T11:26:36;3.83;;;0.60;;
28934;SDS011;16044;52.726;-2.108;2024-02-21T11:29:08;4.07;;;0.75;;
28934;SDS011;16044;52.726;-2.108;2024-02-21T11:31:42;3.38;;;0.77;;
28934;SDS011;16044;52.726;-2.108;2024-02-21T11:34:17;3.05;;;0.80;;
28934;SDS011;16044;52.726;-2.108;2024-02-21T11:36:48;3.45;;;0.68;;
28934;SDS011;16044;52.726;-2.108;2024-02-21T11:39:21;2.45;;;0.70;;
28934;SDS011;16044;52.726;-2.108;2024-02-21T11:42:02;3.50;;;0.60;;
28934;SDS011;16044;52.726;-2.108;2024-02-21T11:44:34;2.05;;;0.50;;
28934;SDS011;16044;52.726;-2.108;2024-02-21T11:47:09;1.42;;;0.60;;
28934;SDS011;16044;52.726;-2.108;2024-02-21T11:49:44;1.70;;;0.40;;
28934;SDS011;16044;52.726;-2.108;2024-02-21T11:52:21;1.65;;;0.40;;
28934;SDS011;16044;52.726;-2.108;2024-02-21T11:54:53;3.22;;;0.50;;
28934;SDS011;16044;52.726;-2.108;2024-02-21T11:57:32;1.80;;;0.57;;
28934;SDS011;16044;52.726;-2.108;2024-02-21T12:00:14;1.05;;;0.40;;
28934;SDS011;16044;52.726;-2.108;2024-02-21T12:02:49;2.03;;;0.60;;
28934;SDS011;16044;52.726;-2.108;2024-02-21T12:05:22;2.58;;;0.57;;
28934;SDS011;16044;52.726;-2.108;2024-02-21T12:07:54;3.42;;;0.50;;
28934;SDS011;16044;52.726;-2.108;2024-02-21T12:10:25;0.98;;;0.40;;
28934;SDS011;16044;52.726;-2.108;2024-02-21T12:13:04;3.50;;;0.38;;
28934;SDS011;16044;52.726;-2.108;2024-02-21T12:15:38;0.80;;;0.40;;
28934;SDS011;16044;52.726;-2.108;2024-02-21T12:18:12;2.80;;;0.30;;
28934;SDS011;16044;52.726;-2.108;2024-02-21T12:20:43;3.63;;;0.50;;
28934;SDS011;16044;52.726;-2.108;2024-02-21T12:23:18;1.38;;;0.40;;
28934;SDS011;16044;52.726;-2.108;2024-02-21T12:25:48;1.38;;;0.40;;
28934;SDS011;16044;52.726;-2.108;2024-02-21T12:28:21;1.52;;;0.40;;
28934;SDS011;16044;52.726;-2.108;2024-02-21T12:30:51;1.73;;;0.60;;
28934;SDS011;16044;52.726;-2.108;2024-02-21T12:33:24;3.60;;;0.80;;
28934;SDS011;16044;52.726;-2.108;2024-02-21T12:35:55;1.45;;;0.40;;
28934;SDS011;16044;52.726;-2.108;2024-02-21T12:38:26;1.73;;;0.77;;
28934;SDS011;16044;52.726;-2.108;2024-02-21T12:40:56;1.33;;;0.40;;
28934;SDS011;16044;52.726;-2.108;2024-02-21T12:43:27;2.92;;;0.40;;
28934;SDS011;16044;52.726;-2.108;2024-02-21T12:46:01;1.17;;;0.30;;
28934;SDS011;16044;52.726;-2.108;2024-02-21T12:48:34;1.20;;;0.45;;
28934;SDS011;16044;52.726;-2.108;2024-02-21T12:51:04;3.03;;;0.40;;
28934;SDS011;16044;52.726;-2.108;2024-02-21T12:53:35;1.13;;;0.40;;
28934;SDS011;16044;52.726;-2.108;2024-02-21T12:56:06;1.85;;;0.30;;
28934;SDS011;16044;52.726;-2.108;2024-02-21T12:58:36;2.42;;;0.47;;
28934;SDS011;16044;52.726;-2.108;2024-02-21T13:01:07;0.85;;;0.30;;
28934;SDS011;16044;52.726;-2.108;2024-02-21T13:03:40;0.93;;;0.20;;
28934;SDS011;16044;52.726;-2.108;2024-02-21T13:06:10;1.27;;;0.20;;
28934;SDS011;16044;52.726;-2.108;2024-02-21T13:08:41;2.78;;;0.40;;
28934;SDS011;16044;52.726;-2.108;2024-02-21T13:11:12;0.73;;;0.30;;
28934;SDS011;16044;52.726;-2.108;2024-02-21T13:13:43;1.33;;;0.30;;
28934;SDS011;16044;52.726;-2.108;2024-02-21T13:16:14;1.23;;;0.28;;
28934;SDS011;16044;52.726;-2.108;2024-02-21T13:18:47;1.48;;;0.40;;
28934;SDS011;16044;52.726;-2.108;2024-02-21T13:21:18;1.50;;;0.40;;
28934;SDS011;16044;52.726;-2.108;2024-02-21T13:23:48;1.85;;;0.47;;
28934;SDS011;16044;52.726;-2.108;2024-02-21T13:26:19;1.05;;;0.35;;
28934;SDS011;16044;52.726;-2.108;2024-02-21T13:28:49;2.78;;;0.40;;
28934;SDS011;16044;52.726;-2.108;2024-02-21T13:31:19;1.23;;;0.30;;
28934;SDS011;16044;52.726;-2.108;2024-02-21T13:33:54;1.30;;;0.30;;
28934;SDS011;16044;52.726;-2.108;2024-02-21T13:36:25;0.50;;;0.28;;
28934;SDS011;16044;52.726;-2.108;2024-02-21T13:38:56;1.80;;;0.43;;
28934;SDS011;16044;52.726;-2.108;2024-02-21T13:41:26;1.42;;;0.20;;
28934;SDS011;16044;52.726;-2.108;2024-02-21T13:43:57;1.30;;;0.30;;
28934;SDS011;16044;52.726;-2.108;2024-02-21T13:46:27;0.95;;;0.25;;
28934;SDS011;16044;52.726;-2.108;2024-02-21T13:49:04;3.08;;;0.38;;
28934;SDS011;16044;52.726;-2.108;2024-02-21T13:51:35;1.33;;;0.30;;
28934;SDS011;16044;52.726;-2.108;2024-02-21T13:54:07;1.38;;;0.20;;
28934;SDS011;16044;52.726;-2.108;2024-02-21T13:56:41;0.32;;;0.20;;
28934;SDS011;16044;52.726;-2.108;2024-02-21T13:59:11;1.73;;;0.30;;
28934;SDS011;16044;52.726;-2.108;2024-02-21T14:01:43;1.25;;;0.30;;
28934;SDS011;16044;52.726;-2.108;2024-02-21T14:04:16;1.15;;;0.40;;
28934;SDS011;16044;52.726;-2.108;2024-02-21T14:06:46;4.13;;;0.30;;
28934;SDS011;16044;52.726;-2.108;2024-02-21T14:09:17;1.02;;;0.30;;
28934;SDS011;16044;52.726;-2.108;2024-02-21T14:11:48;1.30;;;0.40;;
28934;SDS011;16044;52.726;-2.108;2024-02-21T14:14:19;2.75;;;0.30;;
28934;SDS011;16044;52.726;-2.108;2024-02-21T14:16:49;0.98;;;0.30;;
28934;SDS011;16044;52.726;-2.108;2024-02-21T14:19:22;2.13;;;0.30;;
28934;SDS011;16044;52.726;-2.108;2024-02-21T14:21:53;1.15;;;0.28;;
28934;SDS011;16044;52.726;-2.108;2024-02-21T14:24:23;2.30;;;0.20;;
28934;SDS011;16044;52.726;-2.108;2024-02-21T14:26:54;0.88;;;0.28;;
28934;SDS011;16044;52.726;-2.108;2024-02-21T14:29:24;1.83;;;0.30;;
28934;SDS011;16044;52.726;-2.108;2024-02-21T14:31:55;2.25;;;0.70;;
28934;SDS011;16044;52.726;-2.108;2024-02-21T14:34:28;2.78;;;0.50;;
28934;SDS011;16044;52.726;-2.108;2024-02-21T14:36:59;1.40;;;0.30;;
28934;SDS011;16044;52.726;-2.108;2024-02-21T14:39:30;1.00;;;0.35;;
28934;SDS011;16044;52.726;-2.108;2024-02-21T14:42:02;3.10;;;0.70;;
28934;SDS011;16044;52.726;-2.108;2024-02-21T14:44:32;1.27;;;0.50;;
28934;SDS011;16044;52.726;-2.108;2024-02-21T14:47:02;1.90;;;0.50;;
28934;SDS011;16044;52.726;-2.108;2024-02-21T14:49:35;1.20;;;0.60;;
28934;SDS011;16044;52.726;-2.108;2024-02-21T14:52:06;1.42;;;0.63;;
28934;SDS011;16044;52.726;-2.108;2024-02-21T14:54:37;2.03;;;0.90;;
28934;SDS011;16044;52.726;-2.108;2024-02-21T14:57:12;2.33;;;0.80;;